createdAt,value
2023-07-26T00:01:59.422Z,3.55
2023-07-26T00:04:26.701Z,4.00
2023-07-26T00:06:53.928Z,3.50
2023-07-26T00:09:21.174Z,3.38
2023-07-26T00:11:48.413Z,3.92
2023-07-26T00:14:15.811Z,3.60
2023-07-26T00:16:43.204Z,4.28
2023-07-26T00:19:10.530Z,3.90
2023-07-26T00:21:37.968Z,4.20
2023-07-26T00:24:05.443Z,4.20
2023-07-26T00:26:32.763Z,4.15
2023-07-26T00:29:00.118Z,4.50
2023-07-26T00:31:27.413Z,3.70
2023-07-26T00:33:54.573Z,4.38
2023-07-26T00:36:21.689Z,4.18
2023-07-26T00:38:48.968Z,4.15
2023-07-26T00:41:16.070Z,4.28
2023-07-26T00:43:43.178Z,4.18
2023-07-26T00:46:10.634Z,4.25
2023-07-26T00:48:38.189Z,3.88
2023-07-26T00:51:05.826Z,4.10
2023-07-26T00:53:33.537Z,4.65
2023-07-26T00:56:00.766Z,4.20
2023-07-26T00:58:27.999Z,4.25
2023-07-26T01:00:56.089Z,3.83
2023-07-26T01:03:23.559Z,3.65
2023-07-26T01:05:50.801Z,3.97
2023-07-26T01:08:21.381Z,3.88
2023-07-26T01:10:52.963Z,3.83
2023-07-26T01:13:35.458Z,3.80
2023-07-26T01:16:02.758Z,3.65
2023-07-26T01:18:30.206Z,4.05
2023-07-26T01:20:57.706Z,4.00
2023-07-26T01:23:25.116Z,3.95
2023-07-26T01:25:52.547Z,3.63
2023-07-26T01:28:19.927Z,3.92
2023-07-26T01:30:47.812Z,3.85
2023-07-26T01:33:15.780Z,3.90
2023-07-26T01:35:43.797Z,3.97
2023-07-26T01:38:11.319Z,3.72
2023-07-26T01:40:39.268Z,3.80
2023-07-26T01:43:06.803Z,4.00
2023-07-26T01:45:34.397Z,4.40
2023-07-26T01:48:01.653Z,3.47
2023-07-26T01:50:29.181Z,4.03
2023-07-26T01:52:56.520Z,3.50
2023-07-26T01:55:23.642Z,3.97
2023-07-26T01:57:50.903Z,3.92
2023-07-26T02:00:18.095Z,4.07
2023-07-26T02:02:45.268Z,3.90
2023-07-26T02:05:12.731Z,3.88
2023-07-26T02:07:39.949Z,3.50
2023-07-26T02:10:07.543Z,3.42
2023-07-26T02:12:36.080Z,3.30
2023-07-26T02:15:05.910Z,3.65
2023-07-26T02:17:33.086Z,3.17
2023-07-26T02:20:00.325Z,3.80
2023-07-26T02:22:27.504Z,3.53
2023-07-26T02:24:54.982Z,3.17
2023-07-26T02:27:22.408Z,3.47
2023-07-26T02:29:49.886Z,3.45
2023-07-26T02:32:17.297Z,3.75
2023-07-26T02:34:44.740Z,3.60
2023-07-26T02:37:12.131Z,3.55
2023-07-26T02:39:39.530Z,4.13
2023-07-26T02:42:06.700Z,3.70
2023-07-26T02:44:33.820Z,3.40
2023-07-26T02:47:01.015Z,3.85
2023-07-26T02:49:28.175Z,4.07
2023-07-26T02:51:55.648Z,3.63
2023-07-26T02:54:23.115Z,3.53
2023-07-26T02:56:50.335Z,4.00
2023-07-26T02:59:19.257Z,3.88
2023-07-26T03:01:46.513Z,3.97
2023-07-26T03:04:13.693Z,3.75
2023-07-26T03:06:41.430Z,3.72
2023-07-26T03:09:08.803Z,3.47
2023-07-26T03:11:36.505Z,3.70
2023-07-26T03:14:03.905Z,3.17
2023-07-26T03:16:31.675Z,3.67
2023-07-26T03:18:59.142Z,3.70
2023-07-26T03:21:26.281Z,3.42
2023-07-26T03:23:53.693Z,3.55
2023-07-26T03:26:21.140Z,3.72
2023-07-26T03:28:48.572Z,4.00
2023-07-26T03:31:16.030Z,3.70
2023-07-26T03:33:43.554Z,3.53
2023-07-26T03:36:10.883Z,3.55
2023-07-26T03:38:38.009Z,3.30
2023-07-26T03:41:05.099Z,3.22
2023-07-26T03:43:32.204Z,3.47
2023-07-26T03:45:59.438Z,3.40
2023-07-26T03:48:26.664Z,3.38
2023-07-26T03:50:53.872Z,3.60
2023-07-26T03:53:21.291Z,3.40
2023-07-26T03:55:48.660Z,2.90
2023-07-26T03:58:15.843Z,2.90
2023-07-26T04:00:43.022Z,3.10
2023-07-26T04:03:10.357Z,3.40
2023-07-26T04:05:37.960Z,3.75
2023-07-26T04:08:05.432Z,3.20
2023-07-26T04:10:32.803Z,3.30
2023-07-26T04:13:00.442Z,3.10
2023-07-26T04:15:29.610Z,3.20
2023-07-26T04:17:58.049Z,3.08
2023-07-26T04:20:25.688Z,3.75
2023-07-26T04:22:53.119Z,3.53
2023-07-26T04:25:20.637Z,3.63
2023-07-26T04:27:47.789Z,3.17
2023-07-26T04:30:14.905Z,3.05
2023-07-26T04:32:42.394Z,2.90
2023-07-26T04:35:09.737Z,2.90
2023-07-26T04:37:36.940Z,3.10
2023-07-26T04:40:04.248Z,2.80
2023-07-26T04:42:31.647Z,2.50
2023-07-26T04:44:59.144Z,2.92
2023-07-26T04:47:26.576Z,2.60
2023-07-26T04:49:53.729Z,2.97
2023-07-26T04:52:20.896Z,2.80
2023-07-26T04:54:48.047Z,2.80
2023-07-26T04:57:15.267Z,3.30
2023-07-26T04:59:42.452Z,2.78
2023-07-26T05:02:09.932Z,2.80
2023-07-26T05:04:37.389Z,2.83
2023-07-26T05:07:04.731Z,3.15
2023-07-26T05:09:31.959Z,3.00
2023-07-26T05:11:59.407Z,2.72
2023-07-26T05:14:26.859Z,2.70
2023-07-26T05:16:54.287Z,2.70
2023-07-26T05:19:22.180Z,2.60
2023-07-26T05:21:49.694Z,2.60
2023-07-26T05:24:17.389Z,3.00
2023-07-26T05:26:44.654Z,3.00
2023-07-26T05:29:11.838Z,3.05
2023-07-26T05:31:39.329Z,3.33
2023-07-26T05:34:06.599Z,2.80
2023-07-26T05:36:33.747Z,3.10
2023-07-26T05:39:01.428Z,2.58
2023-07-26T05:41:32.745Z,2.67
2023-07-26T05:44:00.933Z,2.53
2023-07-26T05:46:28.412Z,3.03
2023-07-26T05:48:55.854Z,2.58
2023-07-26T05:51:23.037Z,2.60
2023-07-26T05:53:50.210Z,2.97
2023-07-26T05:56:18.688Z,2.90
2023-07-26T05:58:47.157Z,2.70
2023-07-26T06:03:41.584Z,3.60
2023-07-26T06:06:09.114Z,2.85
2023-07-26T06:08:36.634Z,2.70
2023-07-26T06:11:04.923Z,3.20
2023-07-26T06:13:32.377Z,3.05
2023-07-26T06:15:59.605Z,2.78
2023-07-26T06:18:26.751Z,2.60
2023-07-26T06:20:53.953Z,2.85
2023-07-26T06:23:21.520Z,2.83
2023-07-26T06:25:48.978Z,2.70
2023-07-26T06:28:16.085Z,3.00
2023-07-26T06:30:43.282Z,2.90
2023-07-26T06:33:10.561Z,2.65
2023-07-26T06:35:38.095Z,2.42
2023-07-26T06:38:05.313Z,2.60
2023-07-26T06:40:32.571Z,2.95
2023-07-26T06:42:59.906Z,2.55
2023-07-26T06:45:27.139Z,2.90
2023-07-26T06:47:55.489Z,2.60
2023-07-26T06:50:22.735Z,2.60
2023-07-26T06:52:49.951Z,2.80
2023-07-26T06:55:17.436Z,2.88
2023-07-26T06:57:44.953Z,2.40
2023-07-26T07:00:14.095Z,2.70
2023-07-26T07:02:41.346Z,2.80
2023-07-26T07:05:09.172Z,2.22
2023-07-26T07:07:36.403Z,2.53
2023-07-26T07:10:04.458Z,2.65
2023-07-26T07:12:31.685Z,2.50
2023-07-26T07:14:59.110Z,2.42
2023-07-26T07:17:26.611Z,2.35
2023-07-26T07:19:54.112Z,2.58
2023-07-26T07:22:22.482Z,2.40
2023-07-26T07:24:49.755Z,2.60
2023-07-26T07:27:16.988Z,2.30
2023-07-26T07:29:44.158Z,2.45
2023-07-26T07:32:21.704Z,2.53
2023-07-26T07:37:17.012Z,2.00
2023-07-26T07:39:44.533Z,2.33
2023-07-26T07:42:11.887Z,2.25
2023-07-26T07:44:39.275Z,2.53
2023-07-26T07:47:08.629Z,2.03
2023-07-26T07:49:37.721Z,2.10
2023-07-26T07:52:05.016Z,2.35
2023-07-26T07:54:32.206Z,2.30
2023-07-26T07:56:59.376Z,2.70
2023-07-26T07:59:26.680Z,2.25
2023-07-26T08:01:53.878Z,2.20
2023-07-26T08:04:22.383Z,2.45
2023-07-26T08:06:50.158Z,2.80
2023-07-26T08:09:17.540Z,2.67
2023-07-26T08:11:45.004Z,2.90
2023-07-26T08:14:12.397Z,2.70
2023-07-26T08:16:39.874Z,2.33
2023-07-26T08:19:07.375Z,2.17
2023-07-26T08:21:35.128Z,2.30
2023-07-26T08:24:02.895Z,2.67
2023-07-26T08:26:30.668Z,2.60
2023-07-26T08:28:58.159Z,2.70
2023-07-26T08:31:25.708Z,2.58
2023-07-26T08:33:53.597Z,2.33
2023-07-26T08:36:20.816Z,2.70
2023-07-26T08:38:47.985Z,2.83
2023-07-26T08:41:15.632Z,2.67
2023-07-26T08:43:43.805Z,2.35
2023-07-26T08:46:11.672Z,2.60
2023-07-26T08:48:39.188Z,2.57
2023-07-26T08:51:07.306Z,2.67
2023-07-26T08:53:34.996Z,2.97
2023-07-26T08:56:02.693Z,2.75
2023-07-26T08:58:29.991Z,2.73
2023-07-26T09:00:58.656Z,3.10
2023-07-26T09:06:19.562Z,2.72
2023-07-26T09:08:47.592Z,3.17
2023-07-26T09:11:21.717Z,2.50
2023-07-26T09:13:55.140Z,3.05
2023-07-26T09:16:23.063Z,2.92
2023-07-26T09:18:57.526Z,2.87
2023-07-26T09:21:28.252Z,2.63
2023-07-26T09:23:55.694Z,2.90
2023-07-26T09:26:35.641Z,3.05
2023-07-26T09:29:06.820Z,2.97
2023-07-26T09:31:34.759Z,2.58
2023-07-26T09:34:04.493Z,3.90
2023-07-26T09:36:40.606Z,3.00
2023-07-26T09:39:08.200Z,2.80
2023-07-26T09:41:35.797Z,3.15
2023-07-26T09:44:02.993Z,3.13
2023-07-26T09:46:30.527Z,2.83
2023-07-26T09:49:02.328Z,3.10
2023-07-26T09:51:31.906Z,2.83
2023-07-26T09:53:59.864Z,2.53
2023-07-26T09:56:32.425Z,2.45
2023-07-26T09:59:00.450Z,2.67
2023-07-26T10:01:29.037Z,2.72
2023-07-26T10:03:56.884Z,3.00
2023-07-26T10:06:24.648Z,2.90
2023-07-26T10:08:51.905Z,3.00
2023-07-26T10:11:19.481Z,2.88
2023-07-26T10:13:47.878Z,2.63
2023-07-26T10:16:15.170Z,2.88
2023-07-26T10:18:43.017Z,2.90
2023-07-26T10:21:12.663Z,3.00
2023-07-26T10:23:39.929Z,2.70
2023-07-26T10:26:08.328Z,2.78
2023-07-26T10:28:36.128Z,2.63
2023-07-26T10:31:03.690Z,2.88
2023-07-26T10:33:31.226Z,2.50
2023-07-26T10:36:02.813Z,3.20
2023-07-26T10:38:30.112Z,2.80
2023-07-26T10:40:57.339Z,3.05
2023-07-26T10:43:24.595Z,3.13
2023-07-26T10:45:55.459Z,2.75
2023-07-26T10:48:35.366Z,3.00
2023-07-26T10:51:22.123Z,2.90
2023-07-26T10:53:49.650Z,3.22
2023-07-26T10:56:20.779Z,3.13
2023-07-26T10:58:54.954Z,2.70
2023-07-26T11:01:34.319Z,3.00
2023-07-26T11:04:01.790Z,3.00
2023-07-26T11:06:48.523Z,3.35
2023-07-26T11:09:29.490Z,2.97
2023-07-26T11:11:57.060Z,2.88
2023-07-26T11:14:25.872Z,3.38
2023-07-26T11:16:59.035Z,3.33
2023-07-26T11:19:28.388Z,2.95
2023-07-26T11:22:05.727Z,3.45
2023-07-26T11:24:33.414Z,2.80
2023-07-26T11:27:04.280Z,2.97
2023-07-26T11:29:31.702Z,2.78
2023-07-26T11:31:58.912Z,2.88
2023-07-26T11:34:27.531Z,3.15
2023-07-26T11:37:05.866Z,2.72
2023-07-26T11:39:33.103Z,2.40
2023-07-26T11:42:00.603Z,2.60
2023-07-26T11:44:28.127Z,2.85
2023-07-26T11:46:55.866Z,2.53
2023-07-26T11:49:24.247Z,2.40
2023-07-26T11:51:52.408Z,2.57
2023-07-26T11:54:19.868Z,2.67
2023-07-26T11:56:48.048Z,2.47
2023-07-26T11:59:15.402Z,2.67
2023-07-26T12:01:43.250Z,2.50
2023-07-26T12:04:14.299Z,2.50
2023-07-26T12:06:43.014Z,2.70
2023-07-26T12:09:12.920Z,2.65
2023-07-26T12:11:49.094Z,2.28
2023-07-26T12:14:17.368Z,2.63
2023-07-26T12:16:51.632Z,2.58
2023-07-26T12:19:23.215Z,2.55
2023-07-26T12:21:51.165Z,2.38
2023-07-26T12:24:19.202Z,2.40
2023-07-26T12:26:48.933Z,2.33
2023-07-26T12:29:16.742Z,2.22
2023-07-26T12:31:43.963Z,2.70
2023-07-26T12:34:12.226Z,2.80
2023-07-26T12:36:42.231Z,2.80
2023-07-26T12:39:10.349Z,2.53
2023-07-26T12:41:41.241Z,2.50
2023-07-26T12:44:10.771Z,2.72
2023-07-26T12:47:10.581Z,2.97
2023-07-26T12:49:25.961Z,3.20
2023-07-26T12:51:53.275Z,3.00
2023-07-26T12:54:20.745Z,2.80
2023-07-26T12:56:47.992Z,2.85
2023-07-26T12:59:15.249Z,2.58
2023-07-26T13:01:42.919Z,2.65
2023-07-26T13:04:10.841Z,2.78
2023-07-26T13:06:39.687Z,2.30
2023-07-26T13:09:07.480Z,2.17
2023-07-26T13:11:35.059Z,2.33
2023-07-26T13:14:02.858Z,2.50
2023-07-26T13:16:32.521Z,2.25
2023-07-26T13:19:01.399Z,2.47
2023-07-26T13:21:29.734Z,2.17
2023-07-26T13:23:57.618Z,2.47
2023-07-26T13:26:25.669Z,2.22
2023-07-26T13:28:52.856Z,1.97
2023-07-26T13:31:20.295Z,1.80
2023-07-26T13:33:50.431Z,1.80
2023-07-26T13:36:22.547Z,1.70
2023-07-26T13:38:50.297Z,1.50
2023-07-26T13:41:17.555Z,1.45
2023-07-26T13:43:45.025Z,1.30
2023-07-26T13:48:42.849Z,1.60
2023-07-26T13:51:10.584Z,1.40
2023-07-26T13:53:38.134Z,1.10
2023-07-26T13:56:05.606Z,1.20
2023-07-26T13:58:32.869Z,1.23
2023-07-26T14:01:00.150Z,1.20
2023-07-26T14:03:27.355Z,1.30
2023-07-26T14:05:54.641Z,1.30
2023-07-26T14:08:21.790Z,1.40
2023-07-26T14:10:48.966Z,1.13
2023-07-26T14:13:17.028Z,1.50
2023-07-26T14:15:44.293Z,1.52
2023-07-26T14:18:11.907Z,1.48
2023-07-26T14:20:39.398Z,1.45
2023-07-26T14:23:06.678Z,1.38
2023-07-26T14:25:34.775Z,1.27
2023-07-26T14:28:02.296Z,1.40
2023-07-26T14:30:29.739Z,1.63
2023-07-26T14:32:57.234Z,1.63
2023-07-26T14:35:24.725Z,1.40
2023-07-26T14:37:51.889Z,1.45
2023-07-26T14:40:19.363Z,1.35
2023-07-26T14:42:47.110Z,1.23
2023-07-26T14:45:14.554Z,1.40
2023-07-26T14:47:41.788Z,1.23
2023-07-26T14:50:09.492Z,1.45
2023-07-26T14:52:37.974Z,1.50
2023-07-26T14:55:05.843Z,1.45
2023-07-26T14:57:33.442Z,1.60
2023-07-26T15:00:00.754Z,1.40
2023-07-26T15:02:27.939Z,1.40
2023-07-26T15:04:55.551Z,1.40
2023-07-26T15:07:22.814Z,1.48
2023-07-26T15:09:50.407Z,1.48
2023-07-26T15:12:18.103Z,1.55
2023-07-26T15:14:45.656Z,1.40
2023-07-26T15:17:12.906Z,1.58
2023-07-26T15:19:40.386Z,1.67
2023-07-26T15:22:07.908Z,1.30
2023-07-26T15:24:35.362Z,1.75
2023-07-26T15:27:02.712Z,1.70
2023-07-26T15:29:29.908Z,1.60
2023-07-26T15:31:57.068Z,1.48
2023-07-26T15:34:24.695Z,1.60
2023-07-26T15:36:52.090Z,1.52
2023-07-26T15:39:20.191Z,1.73
2023-07-26T15:42:07.033Z,1.90
2023-07-26T15:44:37.669Z,1.65
2023-07-26T15:49:37.703Z,2.38
2023-07-26T15:52:05.754Z,2.03
2023-07-26T15:54:33.116Z,1.92
2023-07-26T15:57:00.329Z,2.05
2023-07-26T15:59:27.879Z,1.92
2023-07-26T16:01:55.291Z,1.73
2023-07-26T16:21:54.380Z,1.70
2023-07-26T16:24:23.182Z,1.88
2023-07-26T16:26:51.917Z,1.70
2023-07-26T16:31:47.335Z,1.70
2023-07-26T16:34:14.868Z,1.80
2023-07-26T16:36:43.140Z,1.95
2023-07-26T16:39:10.428Z,1.60
2023-07-26T16:41:38.041Z,1.85
2023-07-26T16:44:05.272Z,1.58
2023-07-26T16:46:47.004Z,2.15
2023-07-26T16:49:19.529Z,1.58
2023-07-26T16:51:46.793Z,1.73
2023-07-26T16:54:14.049Z,2.40
2023-07-26T16:56:41.198Z,2.00
2023-07-26T16:59:08.373Z,1.85
2023-07-26T17:01:36.036Z,2.15
2023-07-26T17:04:03.582Z,1.80
2023-07-26T17:06:31.213Z,2.15
2023-07-26T17:08:59.163Z,1.92
2023-07-26T17:11:26.619Z,1.77
2023-07-26T17:13:54.155Z,1.75
2023-07-26T17:16:21.666Z,1.73
2023-07-26T17:18:49.920Z,1.90
2023-07-26T17:21:17.574Z,1.88
2023-07-26T17:23:45.741Z,1.63
2023-07-26T17:26:12.989Z,2.13
2023-07-26T17:28:40.118Z,1.60
2023-07-26T17:31:07.579Z,1.63
2023-07-26T17:33:35.360Z,1.60
2023-07-26T17:36:15.464Z,3.10
2023-07-26T17:38:43.186Z,1.52
2023-07-26T17:41:10.678Z,1.95
2023-07-26T17:43:38.403Z,1.98
2023-07-26T17:46:06.041Z,4.05
2023-07-26T17:48:35.724Z,3.03
2023-07-26T17:51:03.310Z,3.35
2023-07-26T17:53:33.929Z,3.00
2023-07-26T17:56:01.439Z,4.07
2023-07-26T17:58:28.954Z,2.22
2023-07-26T18:01:00.288Z,2.17
2023-07-26T18:03:28.242Z,1.77
2023-07-26T18:05:58.948Z,3.13
2023-07-26T18:08:26.181Z,2.08
2023-07-26T18:10:57.491Z,2.80
2023-07-26T18:13:25.473Z,1.85
2023-07-26T18:16:02.175Z,2.10
2023-07-26T18:18:29.773Z,1.92
2023-07-26T18:21:00.930Z,1.58
2023-07-26T18:23:28.474Z,1.85
2023-07-26T18:25:55.813Z,2.15
2023-07-26T18:28:22.998Z,1.80
2023-07-26T18:30:50.240Z,1.38
2023-07-26T18:33:17.465Z,1.80
2023-07-26T18:35:44.721Z,1.77
2023-07-26T18:38:12.245Z,1.55
2023-07-26T18:40:39.723Z,1.50
2023-07-26T18:43:07.074Z,1.30
2023-07-26T18:45:34.661Z,1.20
2023-07-26T18:48:02.281Z,1.40
2023-07-26T18:50:29.483Z,1.40
2023-07-26T18:52:56.684Z,1.48
2023-07-26T18:55:25.197Z,1.65
2023-07-26T18:57:52.669Z,1.52
2023-07-26T19:00:20.131Z,1.40
2023-07-26T19:02:47.362Z,1.67
2023-07-26T19:05:14.584Z,1.50
2023-07-26T19:07:42.096Z,1.83
2023-07-26T19:10:10.601Z,1.85
2023-07-26T19:12:38.626Z,1.52
2023-07-26T19:15:06.810Z,1.42
2023-07-26T19:17:34.734Z,1.25
2023-07-26T19:20:04.048Z,1.45
2023-07-26T19:22:31.719Z,1.35
2023-07-26T19:24:59.281Z,2.08
2023-07-26T19:27:26.530Z,1.52
2023-07-26T19:29:54.251Z,1.63
2023-07-26T19:32:21.658Z,1.73
2023-07-26T19:34:49.076Z,1.58
2023-07-26T19:37:16.505Z,1.33
2023-07-26T19:39:43.864Z,1.70
2023-07-26T19:42:11.117Z,1.60
2023-07-26T19:44:38.297Z,1.70
2023-07-26T19:47:05.868Z,1.98
2023-07-26T19:49:33.326Z,1.90
2023-07-26T19:52:00.637Z,1.55
2023-07-26T19:54:27.878Z,1.52
2023-07-26T19:56:55.376Z,1.70
2023-07-26T19:59:22.834Z,1.42
2023-07-26T20:01:50.541Z,1.60
2023-07-26T20:04:18.117Z,1.63
2023-07-26T20:06:50.795Z,1.58
2023-07-26T20:09:18.411Z,1.88
2023-07-26T20:11:45.667Z,1.50
2023-07-26T20:14:13.660Z,1.75
2023-07-26T20:16:43.750Z,1.42
2023-07-26T20:19:11.470Z,1.75
2023-07-26T20:21:38.943Z,1.73
2023-07-26T20:24:06.671Z,1.50
2023-07-26T20:26:34.513Z,1.50
2023-07-26T20:29:02.301Z,1.73
2023-07-26T20:31:29.859Z,1.70
2023-07-26T20:33:57.375Z,1.58
2023-07-26T20:36:24.830Z,1.83
2023-07-26T20:38:51.937Z,1.98
2023-07-26T20:41:19.538Z,1.80
2023-07-26T20:43:47.557Z,1.50
2023-07-26T20:46:15.101Z,1.73
2023-07-26T20:48:42.574Z,1.80
2023-07-26T20:51:09.738Z,1.63
2023-07-26T20:53:36.865Z,1.58
2023-07-26T20:56:04.349Z,1.90
2023-07-26T20:58:31.578Z,1.40
2023-07-26T21:00:58.846Z,1.80
2023-07-26T21:03:26.329Z,1.40
2023-07-26T21:05:53.893Z,1.52
2023-07-26T21:08:21.318Z,1.60
2023-07-26T21:10:48.692Z,1.48
2023-07-26T21:13:15.925Z,1.70
2023-07-26T21:15:43.157Z,1.30
2023-07-26T21:18:10.544Z,1.85
2023-07-26T21:20:37.894Z,1.45
2023-07-26T21:23:05.178Z,1.77
2023-07-26T21:25:32.416Z,1.60
2023-07-26T21:27:59.708Z,1.60
2023-07-26T21:30:28.730Z,1.50
2023-07-26T21:32:56.349Z,1.70
2023-07-26T21:35:23.862Z,1.70
2023-07-26T21:37:51.065Z,1.60
2023-07-26T21:40:18.208Z,1.60
2023-07-26T21:42:45.422Z,1.83
2023-07-26T21:45:13.384Z,1.85
2023-07-26T21:47:40.624Z,1.40
2023-07-26T21:50:08.116Z,2.08
2023-07-26T21:52:35.360Z,2.10
2023-07-26T21:55:02.801Z,1.60
2023-07-26T21:57:30.029Z,1.70
2023-07-26T21:59:57.275Z,1.60
2023-07-26T22:02:24.530Z,1.60
2023-07-26T22:04:52.696Z,1.58
2023-07-26T22:07:19.873Z,1.50
2023-07-26T22:09:47.059Z,1.60
2023-07-26T22:12:14.637Z,1.40
2023-07-26T22:14:41.870Z,1.50
2023-07-26T22:17:09.400Z,1.60
2023-07-26T22:19:36.754Z,1.30
2023-07-26T22:22:07.140Z,1.20
2023-07-26T22:24:34.881Z,1.40
2023-07-26T22:27:04.257Z,1.33
2023-07-26T22:29:31.799Z,1.67
2023-07-26T22:32:00.511Z,1.50
2023-07-26T22:34:27.796Z,1.40
2023-07-26T22:36:55.017Z,1.60
2023-07-26T22:39:22.633Z,1.40
2023-07-26T22:41:50.290Z,1.50
2023-07-26T22:44:17.835Z,1.27
2023-07-26T22:46:45.060Z,1.50
2023-07-26T22:49:12.271Z,1.70
2023-07-26T22:51:39.493Z,1.30
2023-07-26T22:54:06.590Z,1.40
2023-07-26T22:56:33.881Z,1.58
2023-07-26T22:59:02.888Z,1.40
2023-07-26T23:01:30.221Z,1.85
2023-07-26T23:03:57.753Z,1.63
2023-07-26T23:06:25.021Z,1.50
2023-07-26T23:08:52.276Z,1.42
2023-07-26T23:11:19.438Z,1.33
2023-07-26T23:13:46.943Z,1.35
2023-07-26T23:16:14.418Z,1.80
2023-07-26T23:18:41.559Z,1.35
2023-07-26T23:21:08.723Z,1.27
2023-07-26T23:23:35.910Z,1.40
2023-07-26T23:26:03.639Z,1.63
2023-07-26T23:28:30.832Z,1.75
2023-07-26T23:30:58.378Z,1.40
2023-07-26T23:33:25.958Z,1.60
2023-07-26T23:35:53.333Z,1.30
2023-07-26T23:38:20.485Z,1.92
2023-07-26T23:40:47.641Z,1.80
2023-07-26T23:43:15.142Z,1.60
2023-07-26T23:45:43.020Z,1.38
2023-07-26T23:48:10.309Z,1.83
2023-07-26T23:50:37.845Z,1.73
2023-07-26T23:53:05.323Z,1.67
2023-07-26T23:55:32.505Z,1.35
2023-07-26T23:57:59.655Z,1.42
